sensor_id;sensor_type;location;lat;lon;timestamp;temperature;humidity
8214;DHT22;4148;47.974;7.824;2023-04-24T00:00:12;12.60;99.90
8214;DHT22;4148;47.974;7.824;2023-04-24T00:02:41;12.60;99.90
8214;DHT22;4148;47.974;7.824;2023-04-24T00:05:14;12.50;99.90
8214;DHT22;4148;47.974;7.824;2023-04-24T00:07:44;12.50;99.90
8214;DHT22;4148;47.974;7.824;2023-04-24T00:10:12;12.50;99.90
8214;DHT22;4148;47.974;7.824;2023-04-24T00:12:40;12.50;99.90
8214;DHT22;4148;47.974;7.824;2023-04-24T00:15:09;12.40;99.90
8214;DHT22;4148;47.974;7.824;2023-04-24T00:17:37;12.40;99.90
8214;DHT22;4148;47.974;7.824;2023-04-24T00:20:06;12.40;99.90
8214;DHT22;4148;47.974;7.824;2023-04-24T00:22:34;12.40;99.90
8214;DHT22;4148;47.974;7.824;2023-04-24T00:25:03;12.50;99.90
8214;DHT22;4148;47.974;7.824;2023-04-24T00:27:32;12.50;99.90
8214;DHT22;4148;47.974;7.824;2023-04-24T00:30:02;12.40;99.90
8214;DHT22;4148;47.974;7.824;2023-04-24T00:32:30;12.40;99.90
8214;DHT22;4148;47.974;7.824;2023-04-24T00:34:58;12.40;99.90
8214;DHT22;4148;47.974;7.824;2023-04-24T00:37:26;12.40;99.90
8214;DHT22;4148;47.974;7.824;2023-04-24T00:39:53;12.50;99.90
8214;DHT22;4148;47.974;7.824;2023-04-24T00:42:23;12.40;99.90
8214;DHT22;4148;47.974;7.824;2023-04-24T00:44:51;12.40;99.90
8214;DHT22;4148;47.974;7.824;2023-04-24T00:47:19;12.40;99.90
8214;DHT22;4148;47.974;7.824;2023-04-24T00:49:48;12.30;99.90
8214;DHT22;4148;47.974;7.824;2023-04-24T00:52:16;12.40;99.90
8214;DHT22;4148;47.974;7.824;2023-04-24T00:54:44;12.40;99.90
8214;DHT22;4148;47.974;7.824;2023-04-24T00:57:13;12.30;99.90
8214;DHT22;4148;47.974;7.824;2023-04-24T00:59:43;12.30;99.90
8214;DHT22;4148;47.974;7.824;2023-04-24T01:02:11;12.30;99.90
8214;DHT22;4148;47.974;7.824;2023-04-24T01:04:40;12.30;99.90
8214;DHT22;4148;47.974;7.824;2023-04-24T01:07:08;12.20;99.90
8214;DHT22;4148;47.974;7.824;2023-04-24T01:09:40;12.20;99.90
8214;DHT22;4148;47.974;7.824;2023-04-24T01:12:09;12.20;99.90
8214;DHT22;4148;47.974;7.824;2023-04-24T01:14:37;12.20;99.90
8214;DHT22;4148;47.974;7.824;2023-04-24T01:17:06;12.20;99.90
8214;DHT22;4148;47.974;7.824;2023-04-24T01:19:35;12.10;99.90
8214;DHT22;4148;47.974;7.824;2023-04-24T01:22:09;12.10;99.90
8214;DHT22;4148;47.974;7.824;2023-04-24T01:24:38;12.20;99.90
8214;DHT22;4148;47.974;7.824;2023-04-24T01:27:06;12.30;99.90
8214;DHT22;4148;47.974;7.824;2023-04-24T01:29:35;12.20;99.90
8214;DHT22;4148;47.974;7.824;2023-04-24T01:32:04;12.20;99.90
8214;DHT22;4148;47.974;7.824;2023-04-24T01:34:32;12.20;99.90
8214;DHT22;4148;47.974;7.824;2023-04-24T01:37:01;12.20;99.90
8214;DHT22;4148;47.974;7.824;2023-04-24T01:39:30;12.20;99.90
8214;DHT22;4148;47.974;7.824;2023-04-24T01:42:00;12.20;99.90
8214;DHT22;4148;47.974;7.824;2023-04-24T01:44:29;12.10;99.90
8214;DHT22;4148;47.974;7.824;2023-04-24T01:46:57;12.10;99.90
8214;DHT22;4148;47.974;7.824;2023-04-24T01:49:25;12.10;99.90
8214;DHT22;4148;47.974;7.824;2023-04-24T01:51:53;12.10;99.90
8214;DHT22;4148;47.974;7.824;2023-04-24T01:54:21;12.10;99.90
8214;DHT22;4148;47.974;7.824;2023-04-24T01:56:50;12.10;99.90
8214;DHT22;4148;47.974;7.824;2023-04-24T01:59:20;12.00;99.90
8214;DHT22;4148;47.974;7.824;2023-04-24T02:01:49;12.00;99.90
8214;DHT22;4148;47.974;7.824;2023-04-24T02:04:16;11.90;99.90
8214;DHT22;4148;47.974;7.824;2023-04-24T02:06:44;12.00;99.90
8214;DHT22;4148;47.974;7.824;2023-04-24T02:09:12;11.90;99.90
8214;DHT22;4148;47.974;7.824;2023-04-24T02:11:40;11.90;99.90
8214;DHT22;4148;47.974;7.824;2023-04-24T02:14:09;11.90;99.90
8214;DHT22;4148;47.974;7.824;2023-04-24T02:16:37;11.90;99.90
8214;DHT22;4148;47.974;7.824;2023-04-24T02:19:05;12.00;99.90
8214;DHT22;4148;47.974;7.824;2023-04-24T02:21:33;12.00;99.90
8214;DHT22;4148;47.974;7.824;2023-04-24T02:24:01;12.00;99.90
8214;DHT22;4148;47.974;7.824;2023-04-24T02:28:58;11.80;99.90
8214;DHT22;4148;47.974;7.824;2023-04-24T02:31:27;11.80;99.90
8214;DHT22;4148;47.974;7.824;2023-04-24T02:33:55;11.80;99.90
8214;DHT22;4148;47.974;7.824;2023-04-24T02:36:23;11.70;99.90
8214;DHT22;4148;47.974;7.824;2023-04-24T02:38:51;11.70;99.90
8214;DHT22;4148;47.974;7.824;2023-04-24T02:41:19;11.70;99.90
8214;DHT22;4148;47.974;7.824;2023-04-24T02:43:47;11.70;99.90
8214;DHT22;4148;47.974;7.824;2023-04-24T02:46:15;11.70;99.90
8214;DHT22;4148;47.974;7.824;2023-04-24T02:48:44;11.70;99.90
8214;DHT22;4148;47.974;7.824;2023-04-24T02:51:12;11.70;99.90
8214;DHT22;4148;47.974;7.824;2023-04-24T02:53:39;11.70;99.90
8214;DHT22;4148;47.974;7.824;2023-04-24T02:56:07;11.80;99.90
8214;DHT22;4148;47.974;7.824;2023-04-24T02:58:35;11.70;99.90
8214;DHT22;4148;47.974;7.824;2023-04-24T03:01:03;11.70;99.90
8214;DHT22;4148;47.974;7.824;2023-04-24T03:03:31;11.70;99.90
8214;DHT22;4148;47.974;7.824;2023-04-24T03:06:00;11.70;99.90
8214;DHT22;4148;47.974;7.824;2023-04-24T03:08:28;11.70;99.90
8214;DHT22;4148;47.974;7.824;2023-04-24T03:10:56;11.80;99.90
8214;DHT22;4148;47.974;7.824;2023-04-24T03:13:24;11.80;99.90
8214;DHT22;4148;47.974;7.824;2023-04-24T03:15:52;11.80;99.90
8214;DHT22;4148;47.974;7.824;2023-04-24T03:18:20;11.70;99.90
8214;DHT22;4148;47.974;7.824;2023-04-24T03:20:48;11.70;99.90
8214;DHT22;4148;47.974;7.824;2023-04-24T03:23:18;11.70;99.90
8214;DHT22;4148;47.974;7.824;2023-04-24T03:25:45;11.70;99.90
8214;DHT22;4148;47.974;7.824;2023-04-24T03:28:15;11.70;99.90
8214;DHT22;4148;47.974;7.824;2023-04-24T03:30:42;11.70;99.90
8214;DHT22;4148;47.974;7.824;2023-04-24T03:33:10;11.70;99.90
8214;DHT22;4148;47.974;7.824;2023-04-24T03:35:38;11.60;99.90
8214;DHT22;4148;47.974;7.824;2023-04-24T03:38:06;11.60;99.90
8214;DHT22;4148;47.974;7.824;2023-04-24T03:40:35;11.60;99.90
8214;DHT22;4148;47.974;7.824;2023-04-24T03:43:03;11.60;99.90
8214;DHT22;4148;47.974;7.824;2023-04-24T03:45:31;11.60;99.90
8214;DHT22;4148;47.974;7.824;2023-04-24T03:47:59;11.60;99.90
8214;DHT22;4148;47.974;7.824;2023-04-24T03:50:27;11.50;99.90
8214;DHT22;4148;47.974;7.824;2023-04-24T03:52:55;11.50;99.90
8214;DHT22;4148;47.974;7.824;2023-04-24T03:55:23;11.50;99.90
8214;DHT22;4148;47.974;7.824;2023-04-24T03:57:52;11.40;99.90
8214;DHT22;4148;47.974;7.824;2023-04-24T04:00:20;11.50;99.90
8214;DHT22;4148;47.974;7.824;2023-04-24T04:02:48;11.40;99.90
8214;DHT22;4148;47.974;7.824;2023-04-24T04:05:16;11.40;99.90
8214;DHT22;4148;47.974;7.824;2023-04-24T04:07:44;11.50;99.90
8214;DHT22;4148;47.974;7.824;2023-04-24T04:10:12;11.40;99.90
8214;DHT22;4148;47.974;7.824;2023-04-24T04:12:40;11.40;99.90
8214;DHT22;4148;47.974;7.824;2023-04-24T04:15:10;11.50;99.90
8214;DHT22;4148;47.974;7.824;2023-04-24T04:17:37;11.50;99.90
8214;DHT22;4148;47.974;7.824;2023-04-24T04:20:06;11.50;99.90
8214;DHT22;4148;47.974;7.824;2023-04-24T04:22:35;11.40;99.90
8214;DHT22;4148;47.974;7.824;2023-04-24T04:25:04;11.40;99.90
8214;DHT22;4148;47.974;7.824;2023-04-24T04:27:33;11.40;99.90
8214;DHT22;4148;47.974;7.824;2023-04-24T04:30:01;11.40;99.90
8214;DHT22;4148;47.974;7.824;2023-04-24T04:32:32;11.40;99.90
8214;DHT22;4148;47.974;7.824;2023-04-24T04:35:01;11.40;99.90
8214;DHT22;4148;47.974;7.824;2023-04-24T04:37:30;11.40;99.90
8214;DHT22;4148;47.974;7.824;2023-04-24T04:39:58;11.40;99.90
8214;DHT22;4148;47.974;7.824;2023-04-24T04:42:26;11.40;99.90
8214;DHT22;4148;47.974;7.824;2023-04-24T04:44:55;11.30;99.90
8214;DHT22;4148;47.974;7.824;2023-04-24T04:47:24;11.30;99.90
8214;DHT22;4148;47.974;7.824;2023-04-24T04:49:54;11.30;99.90
8214;DHT22;4148;47.974;7.824;2023-04-24T04:52:23;11.30;99.90
8214;DHT22;4148;47.974;7.824;2023-04-24T04:54:53;11.30;99.90
8214;DHT22;4148;47.974;7.824;2023-04-24T04:57:20;11.30;99.90
8214;DHT22;4148;47.974;7.824;2023-04-24T04:59:48;11.30;99.90
8214;DHT22;4148;47.974;7.824;2023-04-24T05:02:16;11.30;99.90
8214;DHT22;4148;47.974;7.824;2023-04-24T05:04:44;11.30;99.90
8214;DHT22;4148;47.974;7.824;2023-04-24T05:07:14;11.30;99.90
8214;DHT22;4148;47.974;7.824;2023-04-24T05:09:42;11.20;99.90
8214;DHT22;4148;47.974;7.824;2023-04-24T05:12:11;11.20;99.90
8214;DHT22;4148;47.974;7.824;2023-04-24T05:14:39;11.20;99.90
8214;DHT22;4148;47.974;7.824;2023-04-24T05:17:07;11.20;99.90
8214;DHT22;4148;47.974;7.824;2023-04-24T05:19:35;11.20;99.90
8214;DHT22;4148;47.974;7.824;2023-04-24T05:22:04;11.20;99.90
8214;DHT22;4148;47.974;7.824;2023-04-24T05:24:34;11.10;99.90
8214;DHT22;4148;47.974;7.824;2023-04-24T05:27:02;11.10;99.90
8214;DHT22;4148;47.974;7.824;2023-04-24T05:29:31;11.20;99.90
8214;DHT22;4148;47.974;7.824;2023-04-24T05:31:59;11.10;99.90
8214;DHT22;4148;47.974;7.824;2023-04-24T05:34:27;11.10;99.90
8214;DHT22;4148;47.974;7.824;2023-04-24T05:36:55;11.10;99.90
8214;DHT22;4148;47.974;7.824;2023-04-24T05:39:23;11.10;99.90
8214;DHT22;4148;47.974;7.824;2023-04-24T05:41:52;11.10;99.90
8214;DHT22;4148;47.974;7.824;2023-04-24T05:44:21;11.00;99.90
8214;DHT22;4148;47.974;7.824;2023-04-24T05:46:49;11.00;99.90
8214;DHT22;4148;47.974;7.824;2023-04-24T05:49:17;11.00;99.90
8214;DHT22;4148;47.974;7.824;2023-04-24T05:51:45;11.00;99.90
8214;DHT22;4148;47.974;7.824;2023-04-24T05:54:13;10.90;99.90
8214;DHT22;4148;47.974;7.824;2023-04-24T05:56:43;11.00;99.90
8214;DHT22;4148;47.974;7.824;2023-04-24T05:59:12;10.90;99.90
8214;DHT22;4148;47.974;7.824;2023-04-24T06:01:40;10.90;99.90
8214;DHT22;4148;47.974;7.824;2023-04-24T06:04:09;10.90;99.90
8214;DHT22;4148;47.974;7.824;2023-04-24T06:06:37;10.90;99.90
8214;DHT22;4148;47.974;7.824;2023-04-24T06:09:05;10.90;99.90
8214;DHT22;4148;47.974;7.824;2023-04-24T06:11:33;10.90;99.90
8214;DHT22;4148;47.974;7.824;2023-04-24T06:14:01;11.00;99.90
8214;DHT22;4148;47.974;7.824;2023-04-24T06:16:31;11.00;99.90
8214;DHT22;4148;47.974;7.824;2023-04-24T06:18:59;11.10;99.90
8214;DHT22;4148;47.974;7.824;2023-04-24T06:21:26;11.10;99.90
8214;DHT22;4148;47.974;7.824;2023-04-24T06:23:54;11.10;99.90
8214;DHT22;4148;47.974;7.824;2023-04-24T06:26:23;11.10;99.90
8214;DHT22;4148;47.974;7.824;2023-04-24T06:28:53;11.10;99.90
8214;DHT22;4148;47.974;7.824;2023-04-24T06:31:21;11.20;99.90
8214;DHT22;4148;47.974;7.824;2023-04-24T06:33:50;11.20;99.90
8214;DHT22;4148;47.974;7.824;2023-04-24T06:36:18;11.10;99.90
8214;DHT22;4148;47.974;7.824;2023-04-24T06:38:46;11.00;99.90
8214;DHT22;4148;47.974;7.824;2023-04-24T06:41:14;11.00;99.90
8214;DHT22;4148;47.974;7.824;2023-04-24T06:43:42;11.00;99.90
8214;DHT22;4148;47.974;7.824;2023-04-24T06:46:10;11.00;99.90
8214;DHT22;4148;47.974;7.824;2023-04-24T06:48:39;11.00;99.90
8214;DHT22;4148;47.974;7.824;2023-04-24T06:51:08;10.90;99.90
8214;DHT22;4148;47.974;7.824;2023-04-24T06:53:36;10.80;99.90
8214;DHT22;4148;47.974;7.824;2023-04-24T06:56:04;10.80;99.90
8214;DHT22;4148;47.974;7.824;2023-04-24T06:58:32;10.90;99.90
8214;DHT22;4148;47.974;7.824;2023-04-24T07:01:00;11.00;99.90
8214;DHT22;4148;47.974;7.824;2023-04-24T07:03:28;11.00;99.90
8214;DHT22;4148;47.974;7.824;2023-04-24T07:05:56;11.00;99.90
8214;DHT22;4148;47.974;7.824;2023-04-24T07:08:25;11.00;99.90
8214;DHT22;4148;47.974;7.824;2023-04-24T07:10:53;11.10;99.90
8214;DHT22;4148;47.974;7.824;2023-04-24T07:13:23;11.10;99.90
8214;DHT22;4148;47.974;7.824;2023-04-24T07:15:51;11.20;99.90
8214;DHT22;4148;47.974;7.824;2023-04-24T07:18:20;11.30;99.90
8214;DHT22;4148;47.974;7.824;2023-04-24T07:20:48;11.40;99.90
8214;DHT22;4148;47.974;7.824;2023-04-24T07:23:17;11.50;99.90
8214;DHT22;4148;47.974;7.824;2023-04-24T07:25:46;11.50;99.90
8214;DHT22;4148;47.974;7.824;2023-04-24T07:28:14;11.60;99.90
8214;DHT22;4148;47.974;7.824;2023-04-24T07:30:42;11.90;99.90
8214;DHT22;4148;47.974;7.824;2023-04-24T07:33:10;12.10;99.90
8214;DHT22;4148;47.974;7.824;2023-04-24T07:35:40;12.30;99.90
8214;DHT22;4148;47.974;7.824;2023-04-24T07:38:07;12.60;99.90
8214;DHT22;4148;47.974;7.824;2023-04-24T07:40:35;12.80;99.90
8214;DHT22;4148;47.974;7.824;2023-04-24T07:43:04;12.90;99.90
8214;DHT22;4148;47.974;7.824;2023-04-24T07:45:32;13.20;99.90
8214;DHT22;4148;47.974;7.824;2023-04-24T07:48:03;13.50;99.90
8214;DHT22;4148;47.974;7.824;2023-04-24T07:50:31;13.80;99.90
8214;DHT22;4148;47.974;7.824;2023-04-24T07:52:59;13.80;99.90
8214;DHT22;4148;47.974;7.824;2023-04-24T07:55:27;13.90;99.90
8214;DHT22;4148;47.974;7.824;2023-04-24T07:57:55;13.90;99.90
8214;DHT22;4148;47.974;7.824;2023-04-24T08:00:24;13.80;99.90
8214;DHT22;4148;47.974;7.824;2023-04-24T08:02:52;13.40;99.90
8214;DHT22;4148;47.974;7.824;2023-04-24T08:05:20;13.30;99.90
8214;DHT22;4148;47.974;7.824;2023-04-24T08:07:48;12.90;99.90
8214;DHT22;4148;47.974;7.824;2023-04-24T08:10:17;12.80;99.90
8214;DHT22;4148;47.974;7.824;2023-04-24T08:12:44;12.80;99.90
8214;DHT22;4148;47.974;7.824;2023-04-24T08:15:12;12.70;99.90
8214;DHT22;4148;47.974;7.824;2023-04-24T08:17:41;12.50;99.90
8214;DHT22;4148;47.974;7.824;2023-04-24T08:20:10;12.50;99.90
8214;DHT22;4148;47.974;7.824;2023-04-24T08:22:40;12.50;99.90
8214;DHT22;4148;47.974;7.824;2023-04-24T08:25:09;12.40;99.90
8214;DHT22;4148;47.974;7.824;2023-04-24T08:27:36;12.30;99.90
8214;DHT22;4148;47.974;7.824;2023-04-24T08:30:06;12.20;99.90
8214;DHT22;4148;47.974;7.824;2023-04-24T08:32:35;12.30;99.90
8214;DHT22;4148;47.974;7.824;2023-04-24T08:35:06;12.20;99.90
8214;DHT22;4148;47.974;7.824;2023-04-24T08:37:35;12.30;99.90
8214;DHT22;4148;47.974;7.824;2023-04-24T08:40:07;12.30;99.90
8214;DHT22;4148;47.974;7.824;2023-04-24T08:42:39;12.70;99.90
8214;DHT22;4148;47.974;7.824;2023-04-24T08:45:11;12.90;99.90
8214;DHT22;4148;47.974;7.824;2023-04-24T08:47:40;12.90;99.90
8214;DHT22;4148;47.974;7.824;2023-04-24T08:50:11;13.10;99.90
8214;DHT22;4148;47.974;7.824;2023-04-24T08:52:39;13.20;99.90
8214;DHT22;4148;47.974;7.824;2023-04-24T08:55:07;13.30;99.90
8214;DHT22;4148;47.974;7.824;2023-04-24T08:57:35;13.40;99.90
8214;DHT22;4148;47.974;7.824;2023-04-24T09:00:07;13.60;99.90
8214;DHT22;4148;47.974;7.824;2023-04-24T09:02:41;13.50;99.90
8214;DHT22;4148;47.974;7.824;2023-04-24T09:05:12;13.50;99.90
8214;DHT22;4148;47.974;7.824;2023-04-24T09:07:41;13.30;99.90
8214;DHT22;4148;47.974;7.824;2023-04-24T09:10:12;13.20;99.90
8214;DHT22;4148;47.974;7.824;2023-04-24T09:12:41;13.20;99.90
8214;DHT22;4148;47.974;7.824;2023-04-24T09:15:10;13.30;99.90
8214;DHT22;4148;47.974;7.824;2023-04-24T09:17:38;13.10;99.90
8214;DHT22;4148;47.974;7.824;2023-04-24T09:20:07;13.10;99.90
8214;DHT22;4148;47.974;7.824;2023-04-24T09:22:37;13.10;99.90
8214;DHT22;4148;47.974;7.824;2023-04-24T09:25:06;13.10;99.90
8214;DHT22;4148;47.974;7.824;2023-04-24T09:27:35;13.40;99.90
8214;DHT22;4148;47.974;7.824;2023-04-24T09:30:04;13.90;99.90
8214;DHT22;4148;47.974;7.824;2023-04-24T09:32:32;13.90;99.90
8214;DHT22;4148;47.974;7.824;2023-04-24T09:35:07;13.60;99.90
8214;DHT22;4148;47.974;7.824;2023-04-24T09:37:38;13.20;99.60
8214;DHT22;4148;47.974;7.824;2023-04-24T09:40:19;12.90;99.90
8214;DHT22;4148;47.974;7.824;2023-04-24T09:42:52;12.50;99.90
8214;DHT22;4148;47.974;7.824;2023-04-24T09:45:20;12.60;99.90
8214;DHT22;4148;47.974;7.824;2023-04-24T09:47:52;12.50;99.90
8214;DHT22;4148;47.974;7.824;2023-04-24T09:50:21;12.60;99.90
8214;DHT22;4148;47.974;7.824;2023-04-24T09:52:58;12.70;99.90
8214;DHT22;4148;47.974;7.824;2023-04-24T09:55:28;12.80;99.90
8214;DHT22;4148;47.974;7.824;2023-04-24T09:57:57;12.90;99.90
8214;DHT22;4148;47.974;7.824;2023-04-24T10:00:28;12.70;99.90
8214;DHT22;4148;47.974;7.824;2023-04-24T10:02:57;12.80;99.90
8214;DHT22;4148;47.974;7.824;2023-04-24T10:05:27;13.70;99.90
8214;DHT22;4148;47.974;7.824;2023-04-24T10:08:03;14.70;99.90
8214;DHT22;4148;47.974;7.824;2023-04-24T10:10:31;15.20;99.10
8214;DHT22;4148;47.974;7.824;2023-04-24T10:13:00;16.10;98.10
8214;DHT22;4148;47.974;7.824;2023-04-24T10:15:28;16.90;97.50
8214;DHT22;4148;47.974;7.824;2023-04-24T10:17:58;16.70;95.40
8214;DHT22;4148;47.974;7.824;2023-04-24T10:20:27;17.30;94.40
8214;DHT22;4148;47.974;7.824;2023-04-24T10:22:58;17.00;94.90
8214;DHT22;4148;47.974;7.824;2023-04-24T10:25:28;17.20;94.20
8214;DHT22;4148;47.974;7.824;2023-04-24T10:27:58;17.00;92.60
8214;DHT22;4148;47.974;7.824;2023-04-24T10:30:28;17.00;93.60
8214;DHT22;4148;47.974;7.824;2023-04-24T10:32:56;16.80;93.70
8214;DHT22;4148;47.974;7.824;2023-04-24T10:35:24;17.00;93.20
8214;DHT22;4148;47.974;7.824;2023-04-24T10:37:57;16.60;93.40
8214;DHT22;4148;47.974;7.824;2023-04-24T10:40:29;16.00;92.70
8214;DHT22;4148;47.974;7.824;2023-04-24T10:42:57;15.90;93.70
8214;DHT22;4148;47.974;7.824;2023-04-24T10:45:26;15.90;93.50
8214;DHT22;4148;47.974;7.824;2023-04-24T10:47:57;15.60;94.00
8214;DHT22;4148;47.974;7.824;2023-04-24T10:50:26;15.20;93.00
8214;DHT22;4148;47.974;7.824;2023-04-24T10:53:06;15.10;94.50
8214;DHT22;4148;47.974;7.824;2023-04-24T10:55:42;14.60;95.20
8214;DHT22;4148;47.974;7.824;2023-04-24T10:58:10;14.70;95.20
8214;DHT22;4148;47.974;7.824;2023-04-24T11:00:39;14.80;95.70
8214;DHT22;4148;47.974;7.824;2023-04-24T11:03:22;14.80;95.90
8214;DHT22;4148;47.974;7.824;2023-04-24T11:05:53;14.60;95.50
8214;DHT22;4148;47.974;7.824;2023-04-24T11:08:28;14.30;95.20
8214;DHT22;4148;47.974;7.824;2023-04-24T11:10:59;14.00;95.20
8214;DHT22;4148;47.974;7.824;2023-04-24T11:14:04;13.90;95.00
8214;DHT22;4148;47.974;7.824;2023-04-24T11:16:35;13.90;96.50
8214;DHT22;4148;47.974;7.824;2023-04-24T11:19:06;13.70;96.30
8214;DHT22;4148;47.974;7.824;2023-04-24T11:21:42;13.60;95.80
8214;DHT22;4148;47.974;7.824;2023-04-24T11:24:27;13.60;96.10
8214;DHT22;4148;47.974;7.824;2023-04-24T11:26:58;13.60;97.60
8214;DHT22;4148;47.974;7.824;2023-04-24T11:29:40;13.50;96.70
8214;DHT22;4148;47.974;7.824;2023-04-24T11:32:16;13.50;97.10
8214;DHT22;4148;47.974;7.824;2023-04-24T11:34:49;13.50;97.40
8214;DHT22;4148;47.974;7.824;2023-04-24T11:37:17;13.60;98.20
8214;DHT22;4148;47.974;7.824;2023-04-24T11:39:45;13.80;98.50
8214;DHT22;4148;47.974;7.824;2023-04-24T11:42:15;14.00;99.40
8214;DHT22;4148;47.974;7.824;2023-04-24T11:44:43;14.20;98.70
8214;DHT22;4148;47.974;7.824;2023-04-24T11:47:14;14.50;98.20
8214;DHT22;4148;47.974;7.824;2023-04-24T11:49:42;14.40;97.00
8214;DHT22;4148;47.974;7.824;2023-04-24T11:52:10;14.30;98.40
8214;DHT22;4148;47.974;7.824;2023-04-24T11:54:38;14.40;98.70
8214;DHT22;4148;47.974;7.824;2023-04-24T11:57:13;14.50;98.20
8214;DHT22;4148;47.974;7.824;2023-04-24T11:59:43;14.70;97.50
8214;DHT22;4148;47.974;7.824;2023-04-24T12:02:20;14.70;98.60
8214;DHT22;4148;47.974;7.824;2023-04-24T12:04:48;14.80;98.60
8214;DHT22;4148;47.974;7.824;2023-04-24T12:07:17;14.90;96.50
8214;DHT22;4148;47.974;7.824;2023-04-24T12:09:46;14.80;97.90
8214;DHT22;4148;47.974;7.824;2023-04-24T12:12:18;14.70;98.60
8214;DHT22;4148;47.974;7.824;2023-04-24T12:14:53;14.70;98.00
8214;DHT22;4148;47.974;7.824;2023-04-24T12:17:26;14.80;96.70
8214;DHT22;4148;47.974;7.824;2023-04-24T12:19:58;14.50;96.80
8214;DHT22;4148;47.974;7.824;2023-04-24T12:22:27;14.70;98.50
8214;DHT22;4148;47.974;7.824;2023-04-24T12:24:59;15.00;97.90
8214;DHT22;4148;47.974;7.824;2023-04-24T12:27:31;15.40;99.20
8214;DHT22;4148;47.974;7.824;2023-04-24T12:30:04;15.80;97.50
8214;DHT22;4148;47.974;7.824;2023-04-24T12:32:33;16.00;96.60
8214;DHT22;4148;47.974;7.824;2023-04-24T12:35:00;16.00;95.60
8214;DHT22;4148;47.974;7.824;2023-04-24T12:37:33;15.60;95.80
8214;DHT22;4148;47.974;7.824;2023-04-24T12:40:05;15.40;95.90
8214;DHT22;4148;47.974;7.824;2023-04-24T12:42:34;15.40;97.30
8214;DHT22;4148;47.974;7.824;2023-04-24T12:45:05;15.10;97.50
8214;DHT22;4148;47.974;7.824;2023-04-24T12:47:34;15.00;97.40
8214;DHT22;4148;47.974;7.824;2023-04-24T12:50:03;14.90;98.90
8214;DHT22;4148;47.974;7.824;2023-04-24T12:52:32;14.80;97.80
8214;DHT22;4148;47.974;7.824;2023-04-24T12:55:01;14.80;97.00
8214;DHT22;4148;47.974;7.824;2023-04-24T12:57:30;14.60;97.60
8214;DHT22;4148;47.974;7.824;2023-04-24T12:59:58;14.60;97.30
8214;DHT22;4148;47.974;7.824;2023-04-24T13:02:29;14.50;98.20
8214;DHT22;4148;47.974;7.824;2023-04-24T13:04:58;14.60;98.10
8214;DHT22;4148;47.974;7.824;2023-04-24T13:07:27;14.70;98.80
8214;DHT22;4148;47.974;7.824;2023-04-24T13:09:55;14.80;98.60
8214;DHT22;4148;47.974;7.824;2023-04-24T13:12:24;14.80;98.00
8214;DHT22;4148;47.974;7.824;2023-04-24T13:14:52;14.90;97.70
8214;DHT22;4148;47.974;7.824;2023-04-24T13:17:21;14.80;97.60
8214;DHT22;4148;47.974;7.824;2023-04-24T13:19:51;14.80;97.70
8214;DHT22;4148;47.974;7.824;2023-04-24T13:22:19;14.80;98.20
8214;DHT22;4148;47.974;7.824;2023-04-24T13:24:47;14.80;97.40
8214;DHT22;4148;47.974;7.824;2023-04-24T13:27:16;14.80;98.40
8214;DHT22;4148;47.974;7.824;2023-04-24T13:29:44;14.80;97.80
8214;DHT22;4148;47.974;7.824;2023-04-24T13:32:12;14.70;97.10
8214;DHT22;4148;47.974;7.824;2023-04-24T13:34:40;14.80;97.90
8214;DHT22;4148;47.974;7.824;2023-04-24T13:37:09;14.70;97.80
8214;DHT22;4148;47.974;7.824;2023-04-24T13:39:37;14.70;97.90
8214;DHT22;4148;47.974;7.824;2023-04-24T13:42:05;14.70;98.80
8214;DHT22;4148;47.974;7.824;2023-04-24T13:44:33;14.80;98.60
8214;DHT22;4148;47.974;7.824;2023-04-24T13:47:01;14.90;98.50
8214;DHT22;4148;47.974;7.824;2023-04-24T13:49:29;14.90;98.80
8214;DHT22;4148;47.974;7.824;2023-04-24T13:51:57;15.00;99.80
8214;DHT22;4148;47.974;7.824;2023-04-24T13:54:26;15.10;99.20
8214;DHT22;4148;47.974;7.824;2023-04-24T13:56:56;15.00;99.40
8214;DHT22;4148;47.974;7.824;2023-04-24T13:59:25;15.00;98.90
8214;DHT22;4148;47.974;7.824;2023-04-24T14:01:53;15.10;98.20
8214;DHT22;4148;47.974;7.824;2023-04-24T14:04:21;15.10;98.80
8214;DHT22;4148;47.974;7.824;2023-04-24T14:06:49;15.10;99.20
8214;DHT22;4148;47.974;7.824;2023-04-24T14:09:17;15.00;98.90
8214;DHT22;4148;47.974;7.824;2023-04-24T14:11:47;15.00;98.50
8214;DHT22;4148;47.974;7.824;2023-04-24T14:14:14;14.80;98.90
8214;DHT22;4148;47.974;7.824;2023-04-24T14:16:42;14.80;98.40
8214;DHT22;4148;47.974;7.824;2023-04-24T14:19:10;15.00;98.60
8214;DHT22;4148;47.974;7.824;2023-04-24T14:21:38;14.80;99.00
8214;DHT22;4148;47.974;7.824;2023-04-24T14:24:06;14.70;99.00
8214;DHT22;4148;47.974;7.824;2023-04-24T14:26:33;14.60;98.50
8214;DHT22;4148;47.974;7.824;2023-04-24T14:29:03;14.60;99.50
8214;DHT22;4148;47.974;7.824;2023-04-24T14:31:41;14.60;99.10
8214;DHT22;4148;47.974;7.824;2023-04-24T14:34:09;14.30;99.20
8214;DHT22;4148;47.974;7.824;2023-04-24T14:36:36;14.20;99.60
8214;DHT22;4148;47.974;7.824;2023-04-24T14:39:04;14.00;99.60
8214;DHT22;4148;47.974;7.824;2023-04-24T14:41:34;14.00;99.20
8214;DHT22;4148;47.974;7.824;2023-04-24T14:44:04;13.80;99.20
8214;DHT22;4148;47.974;7.824;2023-04-24T14:46:32;13.80;99.40
8214;DHT22;4148;47.974;7.824;2023-04-24T14:49:00;13.90;99.10
8214;DHT22;4148;47.974;7.824;2023-04-24T14:51:28;13.80;98.40
8214;DHT22;4148;47.974;7.824;2023-04-24T14:53:56;13.80;97.40
8214;DHT22;4148;47.974;7.824;2023-04-24T14:56:24;13.80;97.50
8214;DHT22;4148;47.974;7.824;2023-04-24T14:58:52;13.70;98.40
8214;DHT22;4148;47.974;7.824;2023-04-24T15:01:21;13.60;98.20
8214;DHT22;4148;47.974;7.824;2023-04-24T15:03:50;13.70;98.00
8214;DHT22;4148;47.974;7.824;2023-04-24T15:06:19;13.50;98.40
8214;DHT22;4148;47.974;7.824;2023-04-24T15:08:47;13.60;99.00
8214;DHT22;4148;47.974;7.824;2023-04-24T15:11:16;13.70;99.50
8214;DHT22;4148;47.974;7.824;2023-04-24T15:13:44;13.60;99.80
8214;DHT22;4148;47.974;7.824;2023-04-24T15:16:13;13.70;99.60
8214;DHT22;4148;47.974;7.824;2023-04-24T15:18:42;13.80;99.30
8214;DHT22;4148;47.974;7.824;2023-04-24T15:21:10;13.70;99.80
8214;DHT22;4148;47.974;7.824;2023-04-24T15:23:39;13.70;98.90
8214;DHT22;4148;47.974;7.824;2023-04-24T15:26:07;13.70;99.50
8214;DHT22;4148;47.974;7.824;2023-04-24T15:28:34;13.70;99.90
8214;DHT22;4148;47.974;7.824;2023-04-24T15:31:02;13.70;99.90
8214;DHT22;4148;47.974;7.824;2023-04-24T15:33:30;13.70;99.90
8214;DHT22;4148;47.974;7.824;2023-04-24T15:35:59;13.70;99.80
8214;DHT22;4148;47.974;7.824;2023-04-24T15:38:27;13.80;99.30
8214;DHT22;4148;47.974;7.824;2023-04-24T15:40:55;13.80;99.90
8214;DHT22;4148;47.974;7.824;2023-04-24T15:43:23;13.80;99.90
8214;DHT22;4148;47.974;7.824;2023-04-24T15:45:51;13.90;99.90
8214;DHT22;4148;47.974;7.824;2023-04-24T15:48:18;14.00;99.70
8214;DHT22;4148;47.974;7.824;2023-04-24T15:50:46;13.90;99.90
8214;DHT22;4148;47.974;7.824;2023-04-24T15:53:16;13.90;99.70
8214;DHT22;4148;47.974;7.824;2023-04-24T15:55:47;13.90;99.30
8214;DHT22;4148;47.974;7.824;2023-04-24T15:58:16;13.90;99.90
8214;DHT22;4148;47.974;7.824;2023-04-24T16:00:44;13.90;99.60
8214;DHT22;4148;47.974;7.824;2023-04-24T16:03:12;13.90;99.90
8214;DHT22;4148;47.974;7.824;2023-04-24T16:05:41;13.70;99.90
8214;DHT22;4148;47.974;7.824;2023-04-24T16:08:08;13.80;99.90
8214;DHT22;4148;47.974;7.824;2023-04-24T16:10:38;13.70;99.90
8214;DHT22;4148;47.974;7.824;2023-04-24T16:13:06;13.70;99.90
8214;DHT22;4148;47.974;7.824;2023-04-24T16:15:34;13.60;99.90